Time;durP1;ratioP1;P1;durP2;ratioP2;P2;SDS_P1;SDS_P2;PMS_P1;PMS_P2;Temp;Humidity;BMP_temperature;BMP_pressure;BME280_temperature;BME280_humidity;BME280_pressure;Samples;Min_cycle;Max_cycle;Signal;HPM_P1;HPM_P2
2021/10/25 00:02:26;;;;;;;0.20;0.20;;;7.20;90.70;5.80;101852.00;;;;31267926;28;20045;-71
2021/10/25 00:17:27;;;;;;;0.20;0.20;;;7.20;90.80;5.80;101843.00;;;;31271412;28;20735;-72
2021/10/25 00:32:28;;;;;;;0.20;0.20;;;7.00;91.20;5.70;101830.00;;;;31272188;28;20526;-72
2021/10/25 00:47:29;;;;;;;0.30;0.30;;;6.90;90.20;5.60;101827.00;;;;31254013;28;20412;-72
2021/10/25 01:02:32;;;;;;;0.20;0.20;;;7.70;91.60;5.50;101836.00;;;;31269653;28;20403;-72
2021/10/25 01:17:33;;;;;;;0.20;0.20;;;6.10;91.50;5.40;101827.00;;;;31248730;28;20303;-71
2021/10/25 01:32:34;;;;;;;0.40;0.40;;;6.70;91.70;5.40;101809.00;;;;31261913;28;20175;-71
2021/10/25 01:47:36;;;;;;;0.57;0.57;;;6.60;91.60;5.40;101808.00;;;;31246740;28;20053;-72
2021/10/25 02:02:37;;;;;;;0.20;0.20;;;6.60;92.10;5.40;101799.00;;;;31237560;28;20450;-72
2021/10/25 02:17:38;;;;;;;0.28;0.28;;;6.30;91.70;5.50;101791.00;;;;31250184;28;20164;-71
2021/10/25 02:32:41;;;;;;;0.20;0.20;;;6.70;92.50;5.80;101788.00;;;;31255204;28;20124;-72
2021/10/25 02:47:41;;;;;;;0.20;0.20;;;6.90;90.80;6.00;101771.00;;;;31239189;28;20083;-72
2021/10/25 03:02:44;;;;;;;0.35;0.35;;;7.10;91.90;6.10;101755.00;;;;31245828;28;20203;-72
2021/10/25 03:17:47;;;;;;;0.20;0.20;;;7.20;91.40;6.30;101757.00;;;;31246663;28;20042;-72
2021/10/25 03:32:57;;;;;;;0.50;0.50;;;7.40;92.20;6.40;101744.00;;;;31281880;28;20037;-73
2021/10/25 03:48:36;;;;;;;0.32;0.32;;;7.60;91.50;6.60;101752.00;;;;31270739;28;20059;-72
2021/10/25 04:34:41;;;;;;;0.13;0.13;;;;;7.10;101741.00;;;;31267562;28;20037;-72
2021/10/25 04:50:06;;;;;;;0.20;0.20;;;8.30;91.50;7.30;101739.00;;;;31263792;28;20760;-72
2021/10/25 05:05:27;;;;;;;0.20;0.20;;;8.30;92.10;7.40;101738.00;;;;31267312;28;20055;-72
2021/10/25 05:20:28;;;;;;;0.20;0.20;;;8.50;91.80;7.60;101717.00;;;;31258014;28;20042;-72
2021/10/25 05:35:32;;;;;;;0.20;0.20;;;9.00;91.80;7.70;101725.00;;;;31233944;28;20523;-72
2021/10/25 05:50:34;;;;;;;0.20;0.20;;;8.80;91.30;7.80;101713.00;;;;31206652;28;20498;-72
2021/10/25 06:05:37;;;;;;;0.20;0.20;;;8.80;91.70;7.90;101707.00;;;;31226840;28;20049;-72
2021/10/25 06:20:40;;;;;;;0.10;0.10;;;9.00;91.50;8.00;101712.00;;;;31227763;28;20067;-72
2021/10/25 06:36:00;;;;;;;0.43;0.43;;;9.30;91.70;8.00;101714.00;;;;31234625;28;20622;-72
2021/10/25 06:51:25;;;;;;;;;;;9.10;91.00;8.10;101705.00;;;;31249824;28;20050;-72
2021/10/25 07:06:29;;;;;;;0.20;0.20;;;9.20;91.00;8.20;101727.00;;;;31252595;28;20492;-71
2021/10/25 08:07:31;;;;;;;0.20;0.20;;;9.90;89.50;9.10;101754.00;;;;31289126;28;20042;-72
2021/10/25 08:22:44;;;;;;;0.20;0.20;;;10.30;89.20;9.50;101742.00;;;;31285493;28;20049;-71
2021/10/25 08:53:07;;;;;;;0.10;0.10;;;10.60;88.30;9.70;101747.00;;;;31284292;28;20048;-70
2021/10/25 09:08:17;;;;;;;0.20;0.20;;;10.70;89.20;9.70;101745.00;;;;31261862;28;20051;-70
2021/10/25 09:23:25;;;;;;;0.20;0.20;;;10.70;89.50;9.80;101742.00;;;;31244717;28;20044;-71
2021/10/25 09:53:45;;;;;;;0.20;0.20;;;10.90;88.90;10.10;101725.00;;;;31252960;28;20750;-71
2021/10/25 10:08:47;;;;;;;0.20;0.20;;;11.30;89.60;10.20;101715.00;;;;31268507;28;20133;-71
2021/10/25 10:23:58;;;;;;;0.20;0.20;;;11.20;89.60;10.50;101725.00;;;;31240860;28;20436;-71
2021/10/25 10:39:11;;;;;;;0.20;0.20;;;11.40;90.30;10.90;101726.00;;;;31280152;28;20041;-71
2021/10/25 10:55:12;;;;;;;0.20;0.20;;;11.80;88.80;10.90;101733.00;;;;31284465;28;20047;-71
2021/10/25 11:10:13;;;;;;;0.10;0.10;;;12.00;88.30;11.20;101721.00;;;;31272934;28;20095;-71
2021/10/25 11:25:18;;;;;;;0.50;0.50;;;12.00;90.00;11.30;101725.00;;;;31277365;28;20041;-70
2021/10/25 11:40:25;;;;;;;0.28;0.28;;;12.20;88.60;11.60;101707.00;;;;31280342;28;20291;-71
2021/10/25 11:55:36;;;;;;;0.73;0.73;;;12.50;87.00;11.90;101696.00;;;;31265817;28;20116;-71
2021/10/25 12:10:39;;;;;;;0.10;0.10;;;12.70;87.50;12.20;101676.00;;;;31264022;28;20050;-71
2021/10/25 12:25:40;;;;;;;0.20;0.20;;;13.00;86.70;12.50;101668.00;;;;31266023;28;20679;-71
2021/10/25 12:40:52;;;;;;;0.20;0.20;;;13.30;85.30;12.70;101649.00;;;;31273784;28;20045;-71
2021/10/25 12:55:56;;;;;;;0.20;0.20;;;13.40;84.00;12.80;101663.00;;;;31263601;28;20065;-71
2021/10/25 13:10:57;;;;;;;;;;;13.90;83.70;13.60;101656.00;;;;31267517;28;20052;-72
2021/10/25 13:25:58;;;;;;;0.10;0.10;;;14.30;83.70;13.90;101648.00;;;;31267670;28;19932;-72
2021/10/25 13:41:01;;;;;;;0.17;0.17;;;14.60;82.00;13.90;101639.00;;;;31232703;28;20136;-72
2021/10/25 13:56:07;;;;;;;0.10;0.10;;;14.60;82.20;13.90;101638.00;;;;31260563;28;20033;-71
2021/10/25 14:11:08;;;;;;;0.20;0.20;;;14.90;81.50;14.20;101612.00;;;;31218066;28;20076;-71
2021/10/25 14:26:11;;;;;;;0.38;0.38;;;15.00;80.50;14.20;101626.00;;;;31254387;28;20132;-72
2021/10/25 14:56:22;;;;;;;0.10;0.10;;;14.70;81.90;13.90;101600.00;;;;31230805;28;20080;-72
2021/10/25 15:11:24;;;;;;;0.10;0.10;;;14.60;83.00;13.80;101593.00;;;;31250944;28;20051;-72
2021/10/25 15:26:27;;;;;;;0.10;0.10;;;14.60;83.40;13.70;101581.00;;;;31259495;28;20037;-72
2021/10/25 15:41:28;;;;;;;0.27;0.27;;;14.40;85.60;13.50;101592.00;;;;31265926;28;20554;-72
2021/10/25 15:56:29;;;;;;;0.10;0.10;;;14.30;83.60;13.30;101590.00;;;;31279963;28;20073;-71
2021/10/25 16:11:30;;;;;;;0.17;0.17;;;14.20;84.10;13.10;101596.00;;;;31267136;28;20454;-71
2021/10/25 16:26:31;;;;;;;0.10;0.10;;;14.00;84.10;13.00;101597.00;;;;31268936;28;20124;-72
2021/10/25 16:41:32;;;;;;;0.10;0.10;;;13.70;84.40;12.90;101588.00;;;;31265711;28;20040;-73
2021/10/25 17:12:13;;;;;;;0.10;0.10;;;13.50;85.70;12.60;101630.00;;;;31214078;28;20537;-72
2021/10/25 17:27:15;;;;;;;0.45;0.45;;;13.50;86.40;12.50;101641.00;;;;31266716;28;20101;-72
2021/10/25 17:42:19;;;;;;;0.13;0.13;;;13.30;85.90;12.40;101635.00;;;;31262959;28;20049;-72
2021/10/25 17:57:20;;;;;;;;;;;13.30;86.30;12.30;101651.00;;;;31247032;28;20810;-72
2021/10/25 18:12:21;;;;;;;1.27;1.27;;;13.20;87.10;12.20;101656.00;;;;31249361;28;19924;-71
2021/10/25 18:27:22;;;;;;;0.30;0.30;;;13.10;86.40;12.20;101662.00;;;;31235297;28;21179;-72
2021/10/25 18:42:23;;;;;;;0.10;0.10;;;13.00;86.50;12.10;101652.00;;;;31244736;28;20567;-72
2021/10/25 18:57:24;;;;;;;0.10;0.10;;;12.90;86.70;12.10;101657.00;;;;31255510;28;20295;-72
2021/10/25 19:12:25;;;;;;;0.25;0.25;;;12.90;87.50;12.00;101663.00;;;;31257872;28;20671;-72
2021/10/25 19:27:27;;;;;;;0.10;0.10;;;12.90;88.20;12.00;101660.00;;;;31248585;28;20091;-72
2021/10/25 19:42:28;;;;;;;0.10;0.10;;;10.90;87.10;12.00;101671.00;;;;31259273;28;20130;-72
2021/10/25 19:57:30;;;;;;;0.17;0.17;;;12.90;89.10;12.00;101671.00;;;;31273338;28;20060;-72
2021/10/25 20:12:31;;;;;;;0.20;0.20;;;12.90;90.40;12.10;101681.00;;;;31266719;28;20044;-72
2021/10/25 20:27:34;;;;;;;0.15;0.15;;;12.90;89.60;12.10;101684.00;;;;31252890;28;20135;-72
2021/10/25 20:42:35;;;;;;;0.15;0.15;;;13.00;88.70;12.10;101695.00;;;;31261534;28;20052;-72
2021/10/25 20:57:40;;;;;;;0.20;0.20;;;12.90;88.70;12.10;101707.00;;;;31254887;28;20053;-73
2021/10/25 21:12:42;;;;;;;0.20;0.20;;;12.90;90.10;12.00;101712.00;;;;31256566;28;20059;-73
2021/10/25 21:27:48;;;;;;;0.20;0.20;;;12.90;90.10;12.00;101716.00;;;;31240727;28;20041;-72
2021/10/25 21:43:17;;;;;;;0.10;0.10;;;12.90;89.80;12.00;101713.00;;;;31254581;28;20083;-72
2021/10/25 21:58:18;;;;;;;0.20;0.20;;;12.90;92.20;11.90;101712.00;;;;31229307;28;20049;-72
2021/10/25 22:13:20;;;;;;;0.10;0.10;;;12.80;90.60;11.90;101718.00;;;;31245058;28;20136;-72
2021/10/25 22:28:25;;;;;;;0.17;0.17;;;12.80;91.00;11.90;101712.00;;;;31233106;28;20296;-71
2021/10/25 22:43:29;;;;;;;0.20;0.20;;;12.80;90.30;11.90;101705.00;;;;31249445;28;20053;-71
2021/10/25 22:58:35;;;;;;;0.20;0.20;;;12.80;90.30;11.90;101709.00;;;;31244776;28;20048;-71
2021/10/25 23:13:36;;;;;;;0.30;0.30;;;12.80;90.70;11.90;101705.00;;;;31245112;28;20517;-71
2021/10/25 23:28:38;;;;;;;0.10;0.10;;;12.80;90.90;11.80;101712.00;;;;31235747;28;20055;-71
2021/10/25 23:43:40;;;;;;;0.32;0.32;;;12.70;90.80;11.80;101707.00;;;;31260221;28;20131;-72
2021/10/25 23:58:47;;;;;;;0.10;0.10;;;12.70;91.20;11.80;101704.00;;;;31264353;28;20397;-71
